Archdale, NC (27263)

2:17 PM EDT on August 30, 2015 (GMT -0400)
KNCARCHD2 | | Change Station
CLOSE
Current Station
Personal Weather Station
Location: Archdale, NC
Elevation: 801 ft
Nearby Weather Stations

Elev 801 ft 35.92 °N, 79.93 °W | Updated 2 minutes ago

Partly Cloudy
Partly Cloudy
81.8 °F
Feels Like 84 °F
N
0.0
Wind Variable Wind from SSE
Gusts 0.0 mph

Today
High -- | Low -- °F
--% Chance of Precip.
Yesterday
High -- | Low -- °F
Precip. -- in
6:50 AM 7:50 PM
Full, 99% visible
Pressure 30.14 in
Visibility 10.0 miles
Clouds Scattered Clouds 11000 ft
Mostly Cloudy 15000 ft
Overcast 25000 ft
Heat Index 84 °F
Dew Point 66 °F
Humidity 58%
Rainfall 0.00 in
Snow Depth Not available.
UV 3 out of 12
Pollen 8.30 out of 12
Air Quality Not available.
Flu Activity Not available.
METAR KGSO 301754Z 27004KT 10SM SCT110 BKN150 OVC250 28/16 A3017 RMK AO2 SLP205 T02780156 10283 20217 58008
Pressure 30.14 in
Visibility 10.0 miles
Clouds Scattered Clouds 11000 ft
Mostly Cloudy 15000 ft
Overcast 25000 ft
Heat Index 84 °F
Dew Point 66 °F
Humidity 58%
Rainfall 0.00 in
Snow Depth Not available.
UV 3 out of 12
Pollen 8.30 out of 12
Air Quality Not available.
Flu Activity Not available.
METAR KGSO 301754Z 27004KT 10SM SCT110 BKN150 OVC250 28/16 A3017 RMK AO2 SLP205 T02780156 10283 20217 58008

10-Day Weather Forecast

×

Almanac

Astronomy

Aug. 30, 2015 Rise Set
Actual Time
Civil Twilight
Nautical Twilight
Astronomical Twilight
Moon
Length of Visible Light
Length of Day
Tomorrow will be .
, % of the Moon is Illuminated

Today's Extremes

State Highs State Lows

Community

WunderPhotos

Upload Photos

1,851,027 photos uploaded!

WunderBlogs® & News

Nearby

Air Quality

  Air Quality AQ Index Pollutant
Not available.

Snow Depth

Station Depth Elevation

Earthquake Activity

City Distance Mag. Time & Date
Minimum magnitude displayed is 2.5.

Coastal Water Temperatures

Place Temperature

Stations

Nearby Weather Stations

Station Location Temp. Windchill Dew Point Humidity Wind Precip. Elev Updated Type